createdAt,value
2023-05-02T00:00:59.033Z,99674.66
2023-05-02T00:03:26.386Z,99677.38
2023-05-02T00:05:53.030Z,99677.69
2023-05-02T00:08:19.667Z,99677.47
2023-05-02T00:10:46.993Z,99681.84
2023-05-02T00:13:13.580Z,99675.38
2023-05-02T00:15:40.159Z,99687.63
2023-05-02T00:18:06.759Z,99687.91
2023-05-02T00:20:33.359Z,99684.47
2023-05-02T00:22:59.900Z,99680.72
2023-05-02T00:25:26.762Z,99689.16
2023-05-02T00:27:53.362Z,99684.84
2023-05-02T00:30:21.219Z,99690.75
2023-05-02T00:32:47.859Z,99687.53
2023-05-02T00:35:14.609Z,99687.03
2023-05-02T00:37:41.270Z,99684.91
2023-05-02T00:40:08.371Z,99690.88
2023-05-02T00:42:36.290Z,99691.44
2023-05-02T00:45:06.465Z,99693.66
2023-05-02T00:47:33.658Z,99685.25
2023-05-02T00:50:01.409Z,99687.97
2023-05-02T00:52:29.064Z,99693.66
2023-05-02T00:54:55.975Z,99698.53
2023-05-02T00:57:22.932Z,99690.44
2023-05-02T00:59:50.292Z,99698.03
2023-05-02T01:02:30.784Z,99692.09
2023-05-02T01:05:03.350Z,99693.22
2023-05-02T01:07:32.675Z,99691.59
2023-05-02T01:10:20.812Z,99685.16
2023-05-02T01:12:58.488Z,99689.16
2023-05-02T01:15:25.631Z,99675.66
2023-05-02T01:17:55.155Z,99678.66
2023-05-02T01:20:26.468Z,99688.38
2023-05-02T01:22:56.079Z,99678.66
2023-05-02T01:25:56.761Z,99685.16
2023-05-02T01:28:35.970Z,99690.56
2023-05-02T01:31:06.046Z,99692.19
2023-05-02T01:33:35.358Z,99703.56
2023-05-02T01:36:03.221Z,99692.81
2023-05-02T01:38:30.311Z,99706.09
2023-05-02T01:40:57.855Z,99716.09
2023-05-02T01:43:26.038Z,99715.06
2023-05-02T01:45:57.144Z,99717.25
2023-05-02T01:48:25.361Z,99723.25
2023-05-02T01:50:52.392Z,99723.81
2023-05-02T01:53:19.365Z,99731.13
2023-05-02T01:55:47.800Z,99728.69
2023-05-02T01:58:17.156Z,99735.16
2023-05-02T02:00:45.632Z,99735.16
2023-05-02T02:03:13.937Z,99745.16
2023-05-02T02:05:41.722Z,99751.94
2023-05-02T02:08:08.751Z,99755.72
2023-05-02T02:10:45.257Z,99762.22
2023-05-02T02:13:28.104Z,99766.03
2023-05-02T02:16:01.240Z,99769.81
2023-05-02T02:18:29.357Z,99779.31
2023-05-02T02:20:58.972Z,99770.41
2023-05-02T02:23:28.252Z,99776.63
2023-05-02T02:25:57.044Z,99780.13
2023-05-02T02:28:23.796Z,99770.41
2023-05-02T02:30:50.486Z,99778.50
2023-05-02T02:33:17.931Z,99775.53
2023-05-02T02:35:52.811Z,99774.72
2023-05-02T02:38:51.305Z,99775.81
2023-05-02T02:41:31.992Z,99776.06
2023-05-02T02:44:06.121Z,99777.97
2023-05-02T02:46:54.825Z,99782.41
2023-05-02T02:49:30.381Z,99790.53
2023-05-02T02:52:11.187Z,99795.47
2023-05-02T02:54:46.834Z,99797.91
2023-05-02T02:57:24.034Z,99807.16
2023-05-02T03:00:11.923Z,99809.66
2023-05-02T03:02:41.665Z,99815.09
2023-05-02T03:05:10.651Z,99822.97
2023-05-02T03:07:37.207Z,99828.16
2023-05-02T03:10:05.194Z,99832.50
2023-05-02T03:12:32.103Z,99838.47
2023-05-02T03:15:25.515Z,99840.09
2023-05-02T03:17:52.202Z,99840.00
2023-05-02T03:20:19.221Z,99852.94
2023-05-02T03:22:46.075Z,99852.06
2023-05-02T03:25:12.751Z,99848.28
2023-05-02T03:27:39.276Z,99841.00
2023-05-02T03:30:06.895Z,99849.63
2023-05-02T03:32:33.454Z,99851.75
2023-05-02T03:35:00.280Z,99857.69
2023-05-02T03:37:26.908Z,99850.13
2023-05-02T03:39:53.468Z,99858.19
2023-05-02T03:42:19.995Z,99856.03
2023-05-02T03:44:46.533Z,99861.13
2023-05-02T03:47:13.889Z,99854.88
2023-05-02T03:49:40.521Z,99858.13
2023-05-02T03:52:07.111Z,99869.16
2023-05-02T03:54:33.896Z,99859.41
2023-05-02T03:57:01.059Z,99863.47
2023-05-02T03:59:27.617Z,99864.50
2023-05-02T04:01:54.158Z,99860.13
2023-05-02T04:04:20.818Z,99854.16
2023-05-02T04:06:47.517Z,99851.97
2023-05-02T04:09:14.162Z,99853.59
2023-05-02T04:11:42.043Z,99857.97
2023-05-02T04:14:08.720Z,99852.06
2023-05-02T04:16:35.311Z,99847.00
2023-05-02T04:19:01.896Z,99847.31
2023-05-02T04:21:28.661Z,99852.22
2023-05-02T04:23:55.210Z,99850.13
2023-05-02T04:26:21.809Z,99851.25
2023-05-02T04:28:48.380Z,99854.53
2023-05-02T04:31:15.187Z,99850.28
2023-05-02T04:33:41.859Z,99860.56
2023-05-02T04:36:10.480Z,99850.88
2023-05-02T04:38:37.015Z,99866.81
2023-05-02T04:41:08.496Z,99871.41
2023-05-02T04:43:36.009Z,99872.22
2023-05-02T04:46:03.011Z,99879.00
2023-05-02T04:48:29.928Z,99882.25
2023-05-02T04:50:56.547Z,99886.56
2023-05-02T04:53:23.963Z,99881.34
2023-05-02T04:55:50.582Z,99883.47
2023-05-02T04:58:17.598Z,99883.13
2023-05-02T05:00:44.425Z,99888.16
2023-05-02T05:03:11.031Z,99890.00
2023-05-02T05:05:37.992Z,99888.63
2023-05-02T05:08:04.670Z,99894.25
2023-05-02T05:10:31.312Z,99888.31
2023-05-02T05:12:57.910Z,99890.56
2023-05-02T05:15:26.003Z,99890.41
2023-05-02T05:17:52.712Z,99900.00
2023-05-02T05:20:19.897Z,99907.56
2023-05-02T05:22:46.641Z,99908.94
2023-05-02T05:25:13.202Z,99918.56
2023-05-02T05:27:39.829Z,99911.09
2023-05-02T05:30:07.078Z,99918.69
2023-05-02T05:32:34.026Z,99920.56
2023-05-02T05:35:01.392Z,99922.97
2023-05-02T05:37:28.104Z,99928.06
2023-05-02T05:39:54.687Z,99920.06
2023-05-02T05:42:21.186Z,99927.00
2023-05-02T05:44:47.691Z,99932.38
2023-05-02T05:47:19.783Z,99937.09
2023-05-02T05:49:46.331Z,99943.13
2023-05-02T05:52:12.879Z,99946.44
2023-05-02T05:54:39.485Z,99948.66
2023-05-02T05:57:06.037Z,99953.88
2023-05-02T05:59:36.243Z,99957.53
2023-05-02T06:02:04.136Z,99961.53
2023-05-02T06:04:30.906Z,99969.16
2023-05-02T06:06:57.516Z,99967.94
2023-05-02T06:09:24.200Z,99975.91
2023-05-02T06:11:50.779Z,99984.84
2023-05-02T06:14:17.354Z,99978.56
2023-05-02T06:16:44.026Z,99990.34
2023-05-02T06:19:10.590Z,99993.47
2023-05-02T06:21:37.992Z,99993.78
2023-05-02T06:24:04.942Z,99990.78
2023-05-02T06:26:31.511Z,99987.72
2023-05-02T06:28:58.048Z,99996.06
2023-05-02T06:31:24.778Z,100000.91
2023-05-02T06:33:52.374Z,100001.09
2023-05-02T06:36:18.906Z,100009.78
2023-05-02T06:38:45.521Z,100016.00
2023-05-02T06:41:17.882Z,100016.00
2023-05-02T06:43:44.895Z,100020.75
2023-05-02T06:46:11.441Z,100023.34
2023-05-02T06:48:38.144Z,100016.66
2023-05-02T06:51:04.730Z,100022.22
2023-05-02T06:53:33.023Z,100025.66
2023-05-02T06:56:00.013Z,100031.22
2023-05-02T06:58:26.629Z,100019.91
2023-05-02T07:00:53.339Z,100025.75
2023-05-02T07:03:19.881Z,100031.19
2023-05-02T07:05:46.416Z,100029.75
2023-05-02T07:08:12.952Z,100037.28
2023-05-02T07:10:39.539Z,100042.53
2023-05-02T07:13:06.089Z,100033.41
2023-05-02T07:15:32.694Z,100051.38
2023-05-02T07:17:59.359Z,100053.22
2023-05-02T07:20:26.126Z,100047.38
2023-05-02T07:22:52.728Z,100052.09
2023-05-02T07:25:19.356Z,100053.63
2023-05-02T07:27:46.002Z,100059.56
2023-05-02T07:30:13.231Z,100050.44
2023-05-02T07:32:39.921Z,100054.00
2023-05-02T07:35:07.344Z,100058.84
2023-05-02T07:37:35.353Z,100059.66
2023-05-02T07:40:02.516Z,100068.44
2023-05-02T07:42:30.480Z,100064.50
2023-05-02T07:44:57.157Z,100062.38
2023-05-02T07:47:23.816Z,100068.84
2023-05-02T07:49:54.299Z,100064.72
2023-05-02T07:52:20.946Z,100063.78
2023-05-02T07:54:51.658Z,100074.06
2023-05-02T07:57:19.087Z,100071.03
2023-05-02T07:59:45.822Z,100072.44
2023-05-02T08:02:13.873Z,100078.09
2023-05-02T08:04:41.369Z,100071.66
2023-05-02T08:07:07.990Z,100068.03
2023-05-02T08:09:34.687Z,100074.09
2023-05-02T08:12:03.432Z,100072.47
2023-05-02T08:14:30.104Z,100065.41
2023-05-02T08:16:56.649Z,100070.00
2023-05-02T08:19:23.217Z,100068.63
2023-05-02T08:21:49.842Z,100072.88
2023-05-02T08:24:16.387Z,100074.69
2023-05-02T08:26:43.004Z,100079.09
2023-05-02T08:29:11.811Z,100084.72
2023-05-02T08:31:40.355Z,100085.81
2023-05-02T08:34:07.143Z,100088.38
2023-05-02T08:36:33.989Z,100087.34
2023-05-02T08:39:00.561Z,100093.22
2023-05-02T08:41:29.269Z,100086.97
2023-05-02T08:43:56.529Z,100093.00
2023-05-02T08:46:23.914Z,100085.72
2023-05-02T08:48:51.288Z,100085.88
2023-05-02T08:53:46.571Z,100090.44
2023-05-02T08:56:13.186Z,100085.06
2023-05-02T08:58:41.005Z,100085.31
2023-05-02T09:01:15.247Z,100094.81
2023-05-02T09:03:43.972Z,100094.22
2023-05-02T09:06:16.345Z,100097.28
2023-05-02T09:08:44.857Z,100098.91
2023-05-02T09:11:13.191Z,100103.63
2023-05-02T09:13:42.265Z,100097.81
2023-05-02T09:16:13.034Z,100111.72
2023-05-02T09:18:44.821Z,100110.22
2023-05-02T09:21:19.748Z,100109.91
2023-05-02T09:23:52.005Z,100116.88
2023-05-02T09:26:24.130Z,100116.28
2023-05-02T09:28:53.188Z,100115.28
2023-05-02T09:31:43.503Z,100122.81
2023-05-02T09:34:12.682Z,100115.66
2023-05-02T09:36:47.584Z,100112.38
2023-05-02T09:39:16.308Z,100123.25
2023-05-02T09:41:47.115Z,100130.06
2023-05-02T09:44:37.687Z,100121.97
2023-05-02T09:47:04.289Z,100122.53
2023-05-02T09:49:41.131Z,100125.63
2023-05-02T09:52:15.479Z,100129.81
2023-05-02T09:54:42.621Z,100128.38
2023-05-02T09:57:10.929Z,100125.78
2023-05-02T09:59:39.605Z,100134.88
2023-05-02T10:02:09.640Z,100130.19
2023-05-02T10:04:36.906Z,100132.06
2023-05-02T10:07:05.141Z,100140.19
2023-05-02T10:09:35.353Z,100131.31
2023-05-02T10:12:05.204Z,100133.13
2023-05-02T10:14:36.105Z,100128.06
2023-05-02T10:17:12.553Z,100125.34
2023-05-02T10:19:51.846Z,100125.19
2023-05-02T10:22:19.896Z,100129.34
2023-05-02T10:24:49.131Z,100127.81
2023-05-02T10:27:16.017Z,100129.13
2023-05-02T10:29:42.923Z,100133.00
2023-05-02T10:32:10.922Z,100129.66
2023-05-02T10:34:40.705Z,100128.06
2023-05-02T10:37:07.338Z,100134.50
2023-05-02T10:39:34.107Z,100128.22
2023-05-02T10:42:03.655Z,100121.19
2023-05-02T10:44:41.194Z,100116.84
2023-05-02T10:47:27.402Z,100104.59
2023-05-02T10:49:55.186Z,100109.47
2023-05-02T10:52:31.732Z,100099.88
2023-05-02T10:55:15.555Z,100102.97
2023-05-02T10:57:57.312Z,100089.78
2023-05-02T11:00:26.236Z,100084.06
2023-05-02T11:02:52.931Z,100094.31
2023-05-02T11:05:19.725Z,100092.94
2023-05-02T11:07:46.581Z,100090.31
2023-05-02T11:10:20.288Z,100080.56
2023-05-02T11:12:47.899Z,100082.44
2023-05-02T11:15:34.781Z,100082.31
2023-05-02T11:18:08.348Z,100073.94
2023-05-02T11:20:39.691Z,100078.84
2023-05-02T11:23:16.952Z,100074.31
2023-05-02T11:25:56.977Z,100072.91
2023-05-02T11:28:38.653Z,100072.09
2023-05-02T11:31:07.170Z,100068.34
2023-05-02T11:33:33.783Z,100065.03
2023-05-02T11:36:00.575Z,100061.69
2023-05-02T11:38:36.565Z,100060.31
2023-05-02T11:41:04.286Z,100061.38
2023-05-02T11:43:32.247Z,100068.72
2023-05-02T11:46:02.298Z,100076.75
2023-05-02T11:48:30.706Z,100076.16
2023-05-02T11:50:59.479Z,100073.59
2023-05-02T11:53:29.601Z,100077.44
2023-05-02T11:55:58.164Z,100081.31
2023-05-02T11:58:30.075Z,100070.22
2023-05-02T12:00:57.351Z,100072.09
2023-05-02T12:03:32.318Z,100062.63
2023-05-02T12:06:11.608Z,100068.03
2023-05-02T12:08:39.154Z,100063.97
2023-05-02T12:11:06.797Z,100063.75
2023-05-02T12:13:33.943Z,100063.31
2023-05-02T12:16:01.147Z,100063.00
2023-05-02T12:18:28.068Z,100067.34
2023-05-02T12:20:56.621Z,100067.88
2023-05-02T12:23:26.378Z,100068.69
2023-05-02T12:25:53.134Z,100074.94
2023-05-02T12:28:20.669Z,100081.28
2023-05-02T12:30:49.678Z,100078.91
2023-05-02T12:33:17.415Z,100068.78
2023-05-02T12:35:48.101Z,100079.53
2023-05-02T12:38:22.821Z,100074.50
2023-05-02T12:40:54.158Z,100081.19
2023-05-02T12:43:22.171Z,100076.22
2023-05-02T12:45:49.617Z,100082.66
2023-05-02T12:48:25.199Z,100072.63
2023-05-02T12:50:53.613Z,100078.72
2023-05-02T12:53:40.710Z,100083.91
2023-05-02T12:56:08.288Z,100077.50
2023-05-02T12:58:45.000Z,100091.94
2023-05-02T13:01:12.556Z,100090.78
2023-05-02T13:03:39.365Z,100090.00
2023-05-02T13:06:06.457Z,100087.63
2023-05-02T13:08:34.218Z,100090.63
2023-05-02T13:11:01.832Z,100092.19
2023-05-02T13:13:28.956Z,100097.03
2023-05-02T13:15:55.680Z,100093.88
2023-05-02T13:18:22.275Z,100096.47
2023-05-02T13:20:48.925Z,100099.16
2023-05-02T13:23:16.961Z,100085.16
2023-05-02T13:25:43.661Z,100094.53
2023-05-02T13:28:10.381Z,100089.28
2023-05-02T13:30:36.965Z,100079.91
2023-05-02T13:33:03.692Z,100081.25
2023-05-02T13:35:31.087Z,100084.06
2023-05-02T13:37:58.779Z,100087.94
2023-05-02T13:40:25.370Z,100092.94
2023-05-02T13:42:51.920Z,100079.78
2023-05-02T13:45:18.638Z,100091.41
2023-05-02T13:47:45.206Z,100091.69
2023-05-02T13:50:12.498Z,100095.34
2023-05-02T13:52:39.243Z,100092.84
2023-05-02T13:55:06.817Z,100098.66
2023-05-02T13:57:33.483Z,100080.81
2023-05-02T14:00:00.497Z,100086.81
2023-05-02T14:02:27.646Z,100093.00
2023-05-02T14:04:54.319Z,100088.28
2023-05-02T14:07:20.904Z,100083.41
2023-05-02T14:09:47.473Z,100074.03
2023-05-02T14:12:14.025Z,100071.41
2023-05-02T14:14:40.596Z,100068.69
2023-05-02T14:17:07.201Z,100058.66
2023-05-02T14:19:33.960Z,100058.53
2023-05-02T14:22:00.624Z,100065.59
2023-05-02T14:24:27.163Z,100074.28
2023-05-02T14:26:53.764Z,100072.84
2023-05-02T14:29:20.534Z,100085.53
2023-05-02T14:31:47.305Z,100078.78
2023-05-02T14:34:14.050Z,100081.97
2023-05-02T14:36:40.628Z,100090.66
2023-05-02T14:39:07.426Z,100098.69
2023-05-02T14:41:33.960Z,100101.53
2023-05-02T14:44:00.541Z,100102.34
2023-05-02T14:46:27.151Z,100092.75
2023-05-02T14:48:53.735Z,100089.34
2023-05-02T14:51:20.356Z,100080.81
2023-05-02T14:53:48.450Z,100071.41
2023-05-02T14:56:17.189Z,100069.53
2023-05-02T14:58:43.892Z,100064.91
2023-05-02T15:01:18.539Z,100066.38
2023-05-02T15:04:05.298Z,100061.66
2023-05-02T15:06:33.212Z,100056.88
2023-05-02T15:08:59.952Z,100055.97
2023-05-02T15:11:26.791Z,100055.06
2023-05-02T15:13:53.299Z,100053.16
2023-05-02T15:16:19.923Z,100054.16
2023-05-02T15:18:46.569Z,100046.19
2023-05-02T15:21:13.158Z,100045.06
2023-05-02T15:23:39.840Z,100042.31
2023-05-02T15:26:06.700Z,100045.88
2023-05-02T15:28:33.293Z,100049.41
2023-05-02T15:30:59.851Z,100048.91
2023-05-02T15:33:26.382Z,100050.91
2023-05-02T15:35:58.380Z,100045.91
2023-05-02T15:38:25.907Z,100053.28
2023-05-02T15:41:01.617Z,100050.88
2023-05-02T15:43:28.283Z,100065.03
2023-05-02T15:45:56.795Z,100053.81
2023-05-02T15:48:26.899Z,100067.34
2023-05-02T15:50:53.797Z,100061.94
2023-05-02T15:53:23.067Z,100065.19
2023-05-02T15:55:51.186Z,100055.06
2023-05-02T15:58:19.755Z,100050.47
2023-05-02T16:00:51.874Z,100054.50
2023-05-02T16:03:18.499Z,100048.38
2023-05-02T16:05:45.094Z,100053.31
2023-05-02T16:08:11.679Z,100049.41
2023-05-02T16:10:40.319Z,100050.47
2023-05-02T16:13:06.960Z,100063.09
2023-05-02T16:15:33.657Z,100067.31
2023-05-02T16:18:00.271Z,100062.59
2023-05-02T16:20:28.423Z,100069.22
2023-05-02T16:22:55.350Z,100058.72
2023-05-02T16:25:22.179Z,100068.28
2023-05-02T16:27:48.879Z,100067.81
2023-05-02T16:30:15.799Z,100074.16
2023-05-02T16:32:42.400Z,100064.66
2023-05-02T16:35:12.384Z,100059.25
2023-05-02T16:37:41.072Z,100055.56
2023-05-02T16:40:08.928Z,100051.84
2023-05-02T16:42:35.781Z,100056.75
2023-05-02T16:45:02.466Z,100053.97
2023-05-02T16:47:29.137Z,100054.28
2023-05-02T16:49:56.693Z,100052.59
2023-05-02T16:52:23.840Z,100066.22
2023-05-02T16:54:50.964Z,100063.31
2023-05-02T16:57:21.342Z,100061.69
2023-05-02T16:59:49.608Z,100054.09
2023-05-02T17:02:16.880Z,100061.88
2023-05-02T17:04:43.895Z,100072.47
2023-05-02T17:07:13.753Z,100070.25
2023-05-02T17:09:41.856Z,100070.38
2023-05-02T17:12:10.768Z,100073.75
2023-05-02T17:14:39.537Z,100082.53
2023-05-02T17:17:06.110Z,100087.66
2023-05-02T17:19:32.677Z,100086.97
2023-05-02T17:21:59.814Z,100091.41
2023-05-02T17:24:26.553Z,100082.81
2023-05-02T17:26:53.144Z,100098.19
2023-05-02T17:29:19.916Z,100094.03
2023-05-02T17:31:46.718Z,100086.81
2023-05-02T17:34:13.278Z,100098.81
2023-05-02T17:36:43.604Z,100101.31
2023-05-02T17:39:11.570Z,100104.44
2023-05-02T17:41:38.305Z,100110.94
2023-05-02T17:44:05.112Z,100114.19
2023-05-02T17:46:32.744Z,100103.63
2023-05-02T17:49:00.782Z,100120.50
2023-05-02T17:51:28.007Z,100118.56
2023-05-02T17:53:54.820Z,100115.72
2023-05-02T17:56:21.435Z,100116.84
2023-05-02T17:58:48.073Z,100120.56
2023-05-02T18:01:14.657Z,100118.28
2023-05-02T18:03:41.794Z,100116.06
2023-05-02T18:06:08.999Z,100122.00
2023-05-02T18:08:35.876Z,100129.53
2023-05-02T18:11:03.501Z,100133.84
2023-05-02T18:13:30.208Z,100142.38
2023-05-02T18:15:57.329Z,100136.09
2023-05-02T18:18:24.089Z,100141.38
2023-05-02T18:20:50.861Z,100139.56
2023-05-02T18:23:17.444Z,100143.09
2023-05-02T18:25:44.302Z,100147.72
2023-05-02T18:28:11.654Z,100148.47
2023-05-02T18:30:38.474Z,100148.78
2023-05-02T18:33:06.620Z,100148.38
2023-05-02T18:35:33.349Z,100153.50
2023-05-02T18:37:59.923Z,100153.44
2023-05-02T18:40:26.545Z,100153.41
2023-05-02T18:42:53.172Z,100155.91
2023-05-02T18:45:19.754Z,100156.63
2023-05-02T18:47:46.460Z,100153.38
2023-05-02T18:50:13.022Z,100166.13
2023-05-02T18:52:39.814Z,100167.19
2023-05-02T18:55:06.836Z,100172.56
2023-05-02T18:57:36.084Z,100170.09
2023-05-02T19:00:06.414Z,100179.28
2023-05-02T19:02:33.652Z,100179.19
2023-05-02T19:05:00.739Z,100180.72
2023-05-02T19:07:27.921Z,100176.00
2023-05-02T19:09:54.513Z,100190.03
2023-05-02T19:12:21.060Z,100184.97
2023-05-02T19:14:47.972Z,100194.38
2023-05-02T19:17:14.576Z,100188.53
2023-05-02T19:19:41.782Z,100189.94
2023-05-02T19:22:08.464Z,100193.56
2023-05-02T19:24:36.083Z,100201.31
2023-05-02T19:27:06.766Z,100202.53
2023-05-02T19:29:34.404Z,100206.44
2023-05-02T19:32:01.142Z,100198.41
2023-05-02T19:34:28.274Z,100207.25
2023-05-02T19:36:55.062Z,100209.25
2023-05-02T19:39:21.627Z,100219.91
2023-05-02T19:41:49.968Z,100225.75
2023-05-02T19:44:18.120Z,100226.41
2023-05-02T19:46:44.674Z,100234.97
2023-05-02T19:49:11.207Z,100228.50
2023-05-02T19:51:37.735Z,100234.53
2023-05-02T19:54:04.426Z,100238.44
2023-05-02T19:56:30.964Z,100249.41
2023-05-02T19:58:58.786Z,100256.00
2023-05-02T20:01:26.948Z,100249.03
2023-05-02T20:03:53.708Z,100248.31
2023-05-02T20:06:20.457Z,100257.88
2023-05-02T20:08:47.012Z,100262.28
2023-05-02T20:11:13.527Z,100264.53
2023-05-02T20:13:40.184Z,100271.38
2023-05-02T20:16:07.477Z,100261.09
2023-05-02T20:18:34.161Z,100267.91
2023-05-02T20:21:00.815Z,100279.97
2023-05-02T20:23:27.367Z,100273.50
2023-05-02T20:25:53.901Z,100271.16
2023-05-02T20:28:20.538Z,100282.38
2023-05-02T20:30:47.104Z,100284.56
2023-05-02T20:33:16.681Z,100292.78
2023-05-02T20:35:45.510Z,100295.25
2023-05-02T20:38:12.350Z,100295.56
2023-05-02T20:40:40.692Z,100301.34
2023-05-02T20:43:08.851Z,100297.09
2023-05-02T20:45:35.448Z,100302.34
2023-05-02T20:48:02.148Z,100298.84
2023-05-02T20:50:28.795Z,100311.69
2023-05-02T20:52:55.507Z,100314.75
2023-05-02T20:55:23.081Z,100312.88
2023-05-02T20:57:53.076Z,100315.13
2023-05-02T21:00:22.742Z,100325.00
2023-05-02T21:02:49.846Z,100320.69
2023-05-02T21:05:16.663Z,100333.47
2023-05-02T21:07:44.714Z,100331.63
2023-05-02T21:10:11.369Z,100327.34
2023-05-02T21:12:37.972Z,100339.31
2023-05-02T21:15:05.140Z,100327.16
2023-05-02T21:17:31.801Z,100336.16
2023-05-02T21:19:58.376Z,100338.91
2023-05-02T21:22:25.341Z,100335.44
2023-05-02T21:24:51.923Z,100341.16
2023-05-02T21:27:18.537Z,100335.22
2023-05-02T21:29:45.117Z,100343.38
2023-05-02T21:32:11.662Z,100350.75
2023-05-02T21:34:38.388Z,100346.69
2023-05-02T21:37:04.971Z,100347.81
2023-05-02T21:39:31.522Z,100344.31
2023-05-02T21:41:58.112Z,100342.44
2023-05-02T21:44:24.888Z,100342.19
2023-05-02T21:46:51.618Z,100351.94
2023-05-02T21:49:18.212Z,100355.50
2023-05-02T21:51:44.826Z,100361.47
2023-05-02T21:54:11.656Z,100355.78
2023-05-02T21:56:38.189Z,100360.94
2023-05-02T21:59:04.713Z,100362.06
2023-05-02T22:01:31.323Z,100358.28
2023-05-02T22:03:58.178Z,100361.03
2023-05-02T22:06:25.220Z,100365.63
2023-05-02T22:08:52.254Z,100365.91
2023-05-02T22:11:21.637Z,100365.94
2023-05-02T22:13:48.556Z,100364.34
2023-05-02T22:16:15.481Z,100363.78
2023-05-02T22:18:44.670Z,100367.88
2023-05-02T22:21:12.218Z,100363.81
2023-05-02T22:23:39.036Z,100365.44
2023-05-02T22:26:05.608Z,100368.97
2023-05-02T22:28:32.159Z,100367.09
2023-05-02T22:30:58.743Z,100376.81
2023-05-02T22:33:25.374Z,100382.78
2023-05-02T22:35:51.943Z,100380.63
2023-05-02T22:38:20.029Z,100386.03
2023-05-02T22:40:46.695Z,100388.47
2023-05-02T22:43:13.366Z,100395.47
2023-05-02T22:45:40.717Z,100389.78
2023-05-02T22:48:07.708Z,100386.28
2023-05-02T22:50:34.414Z,100386.00
2023-05-02T22:53:04.018Z,100381.16
2023-05-02T22:55:30.944Z,100385.47
2023-05-02T22:57:58.081Z,100385.44
2023-05-02T23:00:25.049Z,100393.56
2023-05-02T23:02:51.881Z,100379.50
2023-05-02T23:05:18.858Z,100393.56
2023-05-02T23:07:45.655Z,100391.41
2023-05-02T23:10:12.164Z,100391.41
2023-05-02T23:12:38.861Z,100384.38
2023-05-02T23:15:06.489Z,100379.22
2023-05-02T23:17:33.048Z,100374.63
2023-05-02T23:19:59.879Z,100374.38
2023-05-02T23:22:26.562Z,100377.03
2023-05-02T23:24:53.091Z,100368.91
2023-05-02T23:27:19.810Z,100370.28
2023-05-02T23:29:48.947Z,100368.09
2023-05-02T23:32:16.596Z,100376.19
2023-05-02T23:34:43.498Z,100363.22
2023-05-02T23:37:11.531Z,100359.94
2023-05-02T23:39:38.394Z,100363.69
2023-05-02T23:42:05.107Z,100355.59
2023-05-02T23:44:31.704Z,100361.78
2023-05-02T23:47:01.531Z,100363.09
2023-05-02T23:49:28.283Z,100364.69
2023-05-02T23:51:54.830Z,100353.91
2023-05-02T23:54:21.364Z,100351.44
2023-05-02T23:56:48.047Z,100352.81
2023-05-02T23:59:15.264Z,100364.13
